sensor_id;sensor_type;location;lat;lon;timestamp;P1;durP1;ratioP1;P2;durP2;ratioP2
85742;SDS011;76184;42.004;21.420;2024-03-23T00:55:40;37.47;;;19.85;;
85742;SDS011;76184;42.004;21.420;2024-03-23T00:58:06;32.83;;;19.13;;
85742;SDS011;76184;42.004;21.420;2024-03-23T01:00:32;38.70;;;20.95;;
85742;SDS011;76184;42.004;21.420;2024-03-23T01:02:58;33.17;;;19.83;;
85742;SDS011;76184;42.004;21.420;2024-03-23T01:05:25;34.53;;;18.33;;
85742;SDS011;76184;42.004;21.420;2024-03-23T01:07:51;33.25;;;20.27;;
85742;SDS011;76184;42.004;21.420;2024-03-23T01:10:17;40.17;;;21.83;;
85742;SDS011;76184;42.004;21.420;2024-03-23T01:12:43;39.47;;;18.20;;
85742;SDS011;76184;42.004;21.420;2024-03-23T01:15:09;39.95;;;19.50;;
85742;SDS011;76184;42.004;21.420;2024-03-23T01:17:35;41.17;;;19.75;;
85742;SDS011;76184;42.004;21.420;2024-03-23T01:20:02;36.67;;;18.98;;
85742;SDS011;76184;42.004;21.420;2024-03-23T01:22:28;39.47;;;19.30;;
85742;SDS011;76184;42.004;21.420;2024-03-23T01:24:54;34.53;;;19.20;;
85742;SDS011;76184;42.004;21.420;2024-03-23T01:27:20;34.78;;;18.88;;
85742;SDS011;76184;42.004;21.420;2024-03-23T01:29:46;32.50;;;18.58;;
85742;SDS011;76184;42.004;21.420;2024-03-23T01:32:12;35.78;;;18.58;;
85742;SDS011;76184;42.004;21.420;2024-03-23T01:34:38;30.42;;;18.45;;
85742;SDS011;76184;42.004;21.420;2024-03-23T01:37:04;34.53;;;18.75;;
85742;SDS011;76184;42.004;21.420;2024-03-23T01:39:31;36.78;;;18.88;;
85742;SDS011;76184;42.004;21.420;2024-03-23T01:41:57;32.05;;;19.17;;
85742;SDS011;76184;42.004;21.420;2024-03-23T01:44:23;34.53;;;18.45;;
85742;SDS011;76184;42.004;21.420;2024-03-23T01:46:49;33.17;;;18.20;;
85742;SDS011;76184;42.004;21.420;2024-03-23T01:49:16;31.15;;;18.15;;
85742;SDS011;76184;42.004;21.420;2024-03-23T01:51:43;30.13;;;17.85;;
85742;SDS011;76184;42.004;21.420;2024-03-23T01:54:10;34.45;;;17.17;;
85742;SDS011;76184;42.004;21.420;2024-03-23T01:56:36;28.67;;;16.75;;
85742;SDS011;76184;42.004;21.420;2024-03-23T01:59:03;33.63;;;18.13;;
85742;SDS011;76184;42.004;21.420;2024-03-23T02:01:29;29.67;;;18.05;;
85742;SDS011;76184;42.004;21.420;2024-03-23T02:03:55;29.90;;;16.75;;
85742;SDS011;76184;42.004;21.420;2024-03-23T02:06:22;30.17;;;17.13;;
85742;SDS011;76184;42.004;21.420;2024-03-23T02:08:48;32.20;;;17.02;;
85742;SDS011;76184;42.004;21.420;2024-03-23T02:11:14;30.95;;;16.73;;
85742;SDS011;76184;42.004;21.420;2024-03-23T02:13:41;30.52;;;17.50;;
85742;SDS011;76184;42.004;21.420;2024-03-23T02:16:07;25.83;;;16.35;;
85742;SDS011;76184;42.004;21.420;2024-03-23T02:18:33;29.88;;;16.40;;
85742;SDS011;76184;42.004;21.420;2024-03-23T02:21:00;27.33;;;15.63;;
85742;SDS011;76184;42.004;21.420;2024-03-23T02:23:26;24.23;;;15.10;;
85742;SDS011;76184;42.004;21.420;2024-03-23T02:25:52;28.70;;;14.65;;
85742;SDS011;76184;42.004;21.420;2024-03-23T02:28:18;29.65;;;14.77;;
85742;SDS011;76184;42.004;21.420;2024-03-23T02:30:46;28.27;;;14.30;;
85742;SDS011;76184;42.004;21.420;2024-03-23T02:33:12;23.90;;;14.80;;
85742;SDS011;76184;42.004;21.420;2024-03-23T02:35:38;25.17;;;14.85;;
85742;SDS011;76184;42.004;21.420;2024-03-23T02:38:04;29.55;;;14.38;;
85742;SDS011;76184;42.004;21.420;2024-03-23T02:40:30;25.98;;;14.05;;
85742;SDS011;76184;42.004;21.420;2024-03-23T02:42:57;21.48;;;13.23;;
85742;SDS011;76184;42.004;21.420;2024-03-23T02:45:23;24.30;;;13.20;;
85742;SDS011;76184;42.004;21.420;2024-03-23T02:47:49;27.30;;;14.75;;
85742;SDS011;76184;42.004;21.420;2024-03-23T02:50:17;23.23;;;12.27;;
85742;SDS011;76184;42.004;21.420;2024-03-23T02:52:44;25.25;;;14.48;;
85742;SDS011;76184;42.004;21.420;2024-03-23T02:55:10;24.58;;;13.30;;
85742;SDS011;76184;42.004;21.420;2024-03-23T02:57:36;19.77;;;12.55;;
85742;SDS011;76184;42.004;21.420;2024-03-23T03:00:02;24.48;;;13.35;;
85742;SDS011;76184;42.004;21.420;2024-03-23T03:02:29;24.35;;;12.75;;
85742;SDS011;76184;42.004;21.420;2024-03-23T03:04:55;23.45;;;12.85;;
85742;SDS011;76184;42.004;21.420;2024-03-23T03:07:21;21.52;;;12.20;;
85742;SDS011;76184;42.004;21.420;2024-03-23T03:09:47;18.63;;;11.55;;
85742;SDS011;76184;42.004;21.420;2024-03-23T03:12:13;23.85;;;11.38;;
85742;SDS011;76184;42.004;21.420;2024-03-23T03:14:39;22.48;;;11.15;;
85742;SDS011;76184;42.004;21.420;2024-03-23T03:17:05;19.63;;;11.48;;
85742;SDS011;76184;42.004;21.420;2024-03-23T03:19:31;19.13;;;10.20;;
85742;SDS011;76184;42.004;21.420;2024-03-23T03:21:58;20.42;;;11.18;;
85742;SDS011;76184;42.004;21.420;2024-03-23T03:24:24;17.50;;;11.02;;
85742;SDS011;76184;42.004;21.420;2024-03-23T03:26:50;18.27;;;10.68;;
85742;SDS011;76184;42.004;21.420;2024-03-23T03:29:16;18.77;;;11.32;;
85742;SDS011;76184;42.004;21.420;2024-03-23T03:31:43;21.90;;;11.70;;
85742;SDS011;76184;42.004;21.420;2024-03-23T03:34:09;16.13;;;9.80;;
85742;SDS011;76184;42.004;21.420;2024-03-23T03:36:35;17.67;;;10.35;;
85742;SDS011;76184;42.004;21.420;2024-03-23T03:39:01;22.77;;;11.10;;
85742;SDS011;76184;42.004;21.420;2024-03-23T03:41:31;19.98;;;11.65;;
85742;SDS011;76184;42.004;21.420;2024-03-23T03:43:57;17.70;;;10.93;;
85742;SDS011;76184;42.004;21.420;2024-03-23T03:46:27;18.13;;;10.93;;
85742;SDS011;76184;42.004;21.420;2024-03-23T03:48:54;18.13;;;10.48;;
85742;SDS011;76184;42.004;21.420;2024-03-23T03:51:20;20.00;;;10.48;;
85742;SDS011;76184;42.004;21.420;2024-03-23T03:53:46;17.75;;;9.63;;
85742;SDS011;76184;42.004;21.420;2024-03-23T03:56:12;17.30;;;9.98;;
85742;SDS011;76184;42.004;21.420;2024-03-23T03:58:38;18.67;;;11.43;;
85742;SDS011;76184;42.004;21.420;2024-03-23T04:01:07;17.58;;;10.82;;
85742;SDS011;76184;42.004;21.420;2024-03-23T04:03:34;17.45;;;9.68;;
85742;SDS011;76184;42.004;21.420;2024-03-23T04:06:00;20.33;;;10.15;;
85742;SDS011;76184;42.004;21.420;2024-03-23T04:08:26;18.27;;;9.60;;
85742;SDS011;76184;42.004;21.420;2024-03-23T04:10:52;17.27;;;9.82;;
85742;SDS011;76184;42.004;21.420;2024-03-23T04:13:19;18.20;;;10.18;;
85742;SDS011;76184;42.004;21.420;2024-03-23T04:15:45;19.15;;;9.38;;
85742;SDS011;76184;42.004;21.420;2024-03-23T04:18:11;17.63;;;9.55;;
85742;SDS011;76184;42.004;21.420;2024-03-23T04:20:37;16.95;;;9.68;;
85742;SDS011;76184;42.004;21.420;2024-03-23T04:23:03;16.40;;;9.20;;
85742;SDS011;76184;42.004;21.420;2024-03-23T04:25:29;18.42;;;9.55;;
85742;SDS011;76184;42.004;21.420;2024-03-23T04:27:56;16.80;;;8.75;;
85742;SDS011;76184;42.004;21.420;2024-03-23T04:30:22;14.73;;;8.82;;
85742;SDS011;76184;42.004;21.420;2024-03-23T04:32:50;15.77;;;9.23;;
85742;SDS011;76184;42.004;21.420;2024-03-23T04:35:16;16.08;;;9.45;;
85742;SDS011;76184;42.004;21.420;2024-03-23T04:37:42;15.48;;;9.00;;
85742;SDS011;76184;42.004;21.420;2024-03-23T04:40:08;16.05;;;8.65;;
85742;SDS011;76184;42.004;21.420;2024-03-23T04:42:36;14.55;;;9.23;;
85742;SDS011;76184;42.004;21.420;2024-03-23T04:45:03;15.10;;;8.95;;
85742;SDS011;76184;42.004;21.420;2024-03-23T04:47:30;13.00;;;7.50;;
85742;SDS011;76184;42.004;21.420;2024-03-23T04:49:56;15.82;;;7.78;;
85742;SDS011;76184;42.004;21.420;2024-03-23T04:52:22;16.23;;;8.05;;
85742;SDS011;76184;42.004;21.420;2024-03-23T04:54:48;13.50;;;7.90;;
85742;SDS011;76184;42.004;21.420;2024-03-23T04:57:15;15.27;;;7.75;;
85742;SDS011;76184;42.004;21.420;2024-03-23T04:59:42;12.13;;;7.57;;
85742;SDS011;76184;42.004;21.420;2024-03-23T05:02:08;11.73;;;7.43;;
85742;SDS011;76184;42.004;21.420;2024-03-23T05:04:35;12.68;;;7.55;;
85742;SDS011;76184;42.004;21.420;2024-03-23T05:07:02;12.88;;;7.40;;
85742;SDS011;76184;42.004;21.420;2024-03-23T05:09:29;14.00;;;8.98;;
85742;SDS011;76184;42.004;21.420;2024-03-23T05:11:56;12.75;;;7.85;;
85742;SDS011;76184;42.004;21.420;2024-03-23T05:14:22;16.50;;;7.63;;
85742;SDS011;76184;42.004;21.420;2024-03-23T05:16:48;14.35;;;7.30;;
85742;SDS011;76184;42.004;21.420;2024-03-23T05:19:14;13.27;;;8.23;;
85742;SDS011;76184;42.004;21.420;2024-03-23T05:21:41;11.45;;;7.03;;
85742;SDS011;76184;42.004;21.420;2024-03-23T05:24:07;13.40;;;7.95;;
85742;SDS011;76184;42.004;21.420;2024-03-23T05:26:33;13.60;;;7.65;;
85742;SDS011;76184;42.004;21.420;2024-03-23T05:28:59;13.50;;;7.95;;
85742;SDS011;76184;42.004;21.420;2024-03-23T05:31:26;14.13;;;8.10;;
85742;SDS011;76184;42.004;21.420;2024-03-23T05:33:52;16.10;;;8.52;;
85742;SDS011;76184;42.004;21.420;2024-03-23T05:36:19;15.75;;;8.65;;
85742;SDS011;76184;42.004;21.420;2024-03-23T05:38:46;15.18;;;8.02;;
85742;SDS011;76184;42.004;21.420;2024-03-23T05:41:12;16.15;;;9.38;;
85742;SDS011;76184;42.004;21.420;2024-03-23T05:43:38;16.92;;;9.93;;
85742;SDS011;76184;42.004;21.420;2024-03-23T05:46:04;16.92;;;10.10;;
85742;SDS011;76184;42.004;21.420;2024-03-23T05:48:30;17.23;;;10.05;;
85742;SDS011;76184;42.004;21.420;2024-03-23T05:50:57;35.67;;;11.50;;
85742;SDS011;76184;42.004;21.420;2024-03-23T05:53:23;18.23;;;11.15;;
85742;SDS011;76184;42.004;21.420;2024-03-23T05:55:50;16.67;;;10.52;;
85742;SDS011;76184;42.004;21.420;2024-03-23T05:58:18;19.45;;;11.02;;
85742;SDS011;76184;42.004;21.420;2024-03-23T06:00:45;18.35;;;10.52;;
85742;SDS011;76184;42.004;21.420;2024-03-23T06:03:11;19.88;;;10.50;;
85742;SDS011;76184;42.004;21.420;2024-03-23T06:05:38;22.25;;;11.43;;
85742;SDS011;76184;42.004;21.420;2024-03-23T06:08:04;19.83;;;10.80;;
85742;SDS011;76184;42.004;21.420;2024-03-23T06:10:31;18.58;;;10.65;;
85742;SDS011;76184;42.004;21.420;2024-03-23T06:12:57;16.08;;;9.98;;
85742;SDS011;76184;42.004;21.420;2024-03-23T06:15:24;19.05;;;10.60;;
85742;SDS011;76184;42.004;21.420;2024-03-23T06:17:51;22.40;;;9.82;;
85742;SDS011;76184;42.004;21.420;2024-03-23T06:20:17;20.27;;;10.07;;
85742;SDS011;76184;42.004;21.420;2024-03-23T06:22:43;15.60;;;8.90;;
85742;SDS011;76184;42.004;21.420;2024-03-23T06:25:09;17.15;;;10.05;;
85742;SDS011;76184;42.004;21.420;2024-03-23T06:27:37;17.02;;;9.77;;
85742;SDS011;76184;42.004;21.420;2024-03-23T06:30:04;15.93;;;9.90;;
85742;SDS011;76184;42.004;21.420;2024-03-23T06:32:30;17.25;;;10.45;;
85742;SDS011;76184;42.004;21.420;2024-03-23T06:34:57;18.60;;;9.68;;
85742;SDS011;76184;42.004;21.420;2024-03-23T06:37:23;16.30;;;9.93;;
85742;SDS011;76184;42.004;21.420;2024-03-23T06:39:49;20.13;;;10.23;;
85742;SDS011;76184;42.004;21.420;2024-03-23T06:42:15;16.05;;;9.32;;
85742;SDS011;76184;42.004;21.420;2024-03-23T06:44:41;20.38;;;10.23;;
85742;SDS011;76184;42.004;21.420;2024-03-23T06:47:07;16.65;;;10.48;;
85742;SDS011;76184;42.004;21.420;2024-03-23T06:49:33;22.58;;;10.60;;
85742;SDS011;76184;42.004;21.420;2024-03-23T06:52:00;22.10;;;10.48;;
85742;SDS011;76184;42.004;21.420;2024-03-23T06:54:26;14.52;;;9.63;;
85742;SDS011;76184;42.004;21.420;2024-03-23T06:56:52;15.05;;;9.82;;
85742;SDS011;76184;42.004;21.420;2024-03-23T06:59:18;17.98;;;10.43;;
85742;SDS011;76184;42.004;21.420;2024-03-23T07:01:44;18.50;;;9.70;;
85742;SDS011;76184;42.004;21.420;2024-03-23T07:04:11;17.38;;;10.15;;
85742;SDS011;76184;42.004;21.420;2024-03-23T07:06:43;19.20;;;10.63;;
85742;SDS011;76184;42.004;21.420;2024-03-23T07:09:09;14.85;;;9.32;;
85742;SDS011;76184;42.004;21.420;2024-03-23T07:11:36;16.17;;;10.32;;
85742;SDS011;76184;42.004;21.420;2024-03-23T07:14:02;19.55;;;10.93;;
85742;SDS011;76184;42.004;21.420;2024-03-23T07:16:28;18.50;;;9.70;;
85742;SDS011;76184;42.004;21.420;2024-03-23T07:18:54;16.42;;;10.27;;
85742;SDS011;76184;42.004;21.420;2024-03-23T07:21:21;17.65;;;10.10;;
85742;SDS011;76184;42.004;21.420;2024-03-23T07:23:47;18.13;;;11.13;;
85742;SDS011;76184;42.004;21.420;2024-03-23T07:26:13;16.73;;;10.73;;
85742;SDS011;76184;42.004;21.420;2024-03-23T07:28:40;20.25;;;11.45;;
85742;SDS011;76184;42.004;21.420;2024-03-23T07:31:10;17.55;;;11.15;;
85742;SDS011;76184;42.004;21.420;2024-03-23T07:33:41;18.75;;;10.75;;
85742;SDS011;76184;42.004;21.420;2024-03-23T07:36:07;22.23;;;11.27;;
85742;SDS011;76184;42.004;21.420;2024-03-23T07:38:33;22.65;;;12.18;;
85742;SDS011;76184;42.004;21.420;2024-03-23T07:41:03;17.70;;;10.95;;
85742;SDS011;76184;42.004;21.420;2024-03-23T07:43:29;20.00;;;11.73;;
85742;SDS011;76184;42.004;21.420;2024-03-23T07:45:55;21.55;;;12.13;;
85742;SDS011;76184;42.004;21.420;2024-03-23T07:48:22;19.85;;;11.88;;
85742;SDS011;76184;42.004;21.420;2024-03-23T07:51:04;18.77;;;12.10;;
85742;SDS011;76184;42.004;21.420;2024-03-23T07:53:31;17.25;;;11.48;;
85742;SDS011;76184;42.004;21.420;2024-03-23T07:55:58;22.25;;;12.02;;
85742;SDS011;76184;42.004;21.420;2024-03-23T07:58:25;17.92;;;11.00;;
85742;SDS011;76184;42.004;21.420;2024-03-23T08:00:54;26.17;;;13.70;;
85742;SDS011;76184;42.004;21.420;2024-03-23T08:03:21;21.40;;;12.45;;
85742;SDS011;76184;42.004;21.420;2024-03-23T08:05:47;21.85;;;14.10;;
85742;SDS011;76184;42.004;21.420;2024-03-23T08:08:13;21.80;;;12.52;;
85742;SDS011;76184;42.004;21.420;2024-03-23T08:13:15;20.42;;;13.00;;
85742;SDS011;76184;42.004;21.420;2024-03-23T08:15:41;20.77;;;12.88;;
85742;SDS011;76184;42.004;21.420;2024-03-23T08:18:07;20.02;;;12.30;;
85742;SDS011;76184;42.004;21.420;2024-03-23T08:20:33;24.58;;;13.25;;
85742;SDS011;76184;42.004;21.420;2024-03-23T08:22:59;24.10;;;12.85;;
85742;SDS011;76184;42.004;21.420;2024-03-23T08:25:25;21.70;;;13.70;;
85742;SDS011;76184;42.004;21.420;2024-03-23T08:27:52;18.73;;;12.40;;
85742;SDS011;76184;42.004;21.420;2024-03-23T08:30:18;18.88;;;12.15;;
85742;SDS011;76184;42.004;21.420;2024-03-23T08:32:44;25.80;;;13.27;;
85742;SDS011;76184;42.004;21.420;2024-03-23T08:35:11;18.70;;;12.52;;
85742;SDS011;76184;42.004;21.420;2024-03-23T08:37:37;16.45;;;12.25;;
85742;SDS011;76184;42.004;21.420;2024-03-23T08:40:03;17.60;;;11.90;;
85742;SDS011;76184;42.004;21.420;2024-03-23T08:42:30;21.88;;;12.00;;
85742;SDS011;76184;42.004;21.420;2024-03-23T08:44:56;19.13;;;12.40;;
85742;SDS011;76184;42.004;21.420;2024-03-23T08:47:22;25.52;;;12.90;;
85742;SDS011;76184;42.004;21.420;2024-03-23T08:49:48;23.13;;;12.75;;
85742;SDS011;76184;42.004;21.420;2024-03-23T08:52:14;18.25;;;12.30;;
85742;SDS011;76184;42.004;21.420;2024-03-23T08:54:40;21.40;;;12.90;;
85742;SDS011;76184;42.004;21.420;2024-03-23T08:57:07;17.60;;;12.45;;
85742;SDS011;76184;42.004;21.420;2024-03-23T08:59:33;18.88;;;12.45;;
85742;SDS011;76184;42.004;21.420;2024-03-23T09:01:59;21.58;;;13.38;;
85742;SDS011;76184;42.004;21.420;2024-03-23T09:04:25;19.98;;;13.25;;
85742;SDS011;76184;42.004;21.420;2024-03-23T09:06:52;19.90;;;14.15;;
85742;SDS011;76184;42.004;21.420;2024-03-23T09:09:18;23.35;;;14.40;;
85742;SDS011;76184;42.004;21.420;2024-03-23T09:11:45;22.88;;;15.15;;
85742;SDS011;76184;42.004;21.420;2024-03-23T09:14:11;21.17;;;13.77;;
85742;SDS011;76184;42.004;21.420;2024-03-23T09:16:37;18.58;;;12.70;;
85742;SDS011;76184;42.004;21.420;2024-03-23T09:19:03;17.60;;;13.48;;
85742;SDS011;76184;42.004;21.420;2024-03-23T09:21:29;18.40;;;12.73;;
85742;SDS011;76184;42.004;21.420;2024-03-23T09:23:56;19.60;;;14.05;;
85742;SDS011;76184;42.004;21.420;2024-03-23T09:26:22;18.08;;;12.88;;
85742;SDS011;76184;42.004;21.420;2024-03-23T09:28:48;17.80;;;12.05;;
85742;SDS011;76184;42.004;21.420;2024-03-23T09:31:15;24.40;;;14.45;;
85742;SDS011;76184;42.004;21.420;2024-03-23T09:33:41;16.52;;;12.18;;
85742;SDS011;76184;42.004;21.420;2024-03-23T09:36:07;15.73;;;11.68;;
85742;SDS011;76184;42.004;21.420;2024-03-23T09:38:34;20.00;;;11.77;;
85742;SDS011;76184;42.004;21.420;2024-03-23T09:41:00;19.27;;;12.55;;
85742;SDS011;76184;42.004;21.420;2024-03-23T09:43:26;14.95;;;10.73;;
85742;SDS011;76184;42.004;21.420;2024-03-23T09:45:53;16.13;;;10.68;;
85742;SDS011;76184;42.004;21.420;2024-03-23T09:48:19;16.17;;;10.32;;
85742;SDS011;76184;42.004;21.420;2024-03-23T09:50:45;15.20;;;10.82;;
85742;SDS011;76184;42.004;21.420;2024-03-23T09:53:14;16.90;;;10.63;;
85742;SDS011;76184;42.004;21.420;2024-03-23T09:55:41;14.40;;;10.13;;
85742;SDS011;76184;42.004;21.420;2024-03-23T09:58:08;17.50;;;10.52;;
85742;SDS011;76184;42.004;21.420;2024-03-23T10:00:34;14.25;;;10.18;;
85742;SDS011;76184;42.004;21.420;2024-03-23T10:03:01;14.02;;;10.35;;
85742;SDS011;76184;42.004;21.420;2024-03-23T10:05:27;15.90;;;11.13;;
85742;SDS011;76184;42.004;21.420;2024-03-23T10:07:54;16.38;;;9.68;;
85742;SDS011;76184;42.004;21.420;2024-03-23T10:10:20;16.88;;;10.52;;
85742;SDS011;76184;42.004;21.420;2024-03-23T10:12:47;15.45;;;10.40;;
85742;SDS011;76184;42.004;21.420;2024-03-23T10:15:19;15.45;;;9.93;;
85742;SDS011;76184;42.004;21.420;2024-03-23T10:17:46;14.35;;;9.95;;
85742;SDS011;76184;42.004;21.420;2024-03-23T10:20:12;15.65;;;10.38;;
85742;SDS011;76184;42.004;21.420;2024-03-23T10:22:39;14.88;;;10.23;;
85742;SDS011;76184;42.004;21.420;2024-03-23T10:25:09;16.88;;;9.38;;
85742;SDS011;76184;42.004;21.420;2024-03-23T10:27:35;16.08;;;10.05;;
85742;SDS011;76184;42.004;21.420;2024-03-23T10:30:12;19.10;;;11.65;;
85742;SDS011;76184;42.004;21.420;2024-03-23T10:32:39;13.75;;;10.00;;
85742;SDS011;76184;42.004;21.420;2024-03-23T10:37:42;13.25;;;8.15;;
85742;SDS011;76184;42.004;21.420;2024-03-23T10:40:09;13.15;;;8.82;;
85742;SDS011;76184;42.004;21.420;2024-03-23T10:42:35;11.48;;;9.52;;
85742;SDS011;76184;42.004;21.420;2024-03-23T10:45:03;13.75;;;9.38;;
85742;SDS011;76184;42.004;21.420;2024-03-23T10:47:30;14.75;;;9.00;;
85742;SDS011;76184;42.004;21.420;2024-03-23T10:49:56;14.05;;;9.35;;
85742;SDS011;76184;42.004;21.420;2024-03-23T10:52:22;15.25;;;9.43;;
85742;SDS011;76184;42.004;21.420;2024-03-23T10:54:49;12.90;;;8.75;;
85742;SDS011;76184;42.004;21.420;2024-03-23T10:57:17;12.15;;;7.80;;
85742;SDS011;76184;42.004;21.420;2024-03-23T10:59:45;10.43;;;7.00;;
85742;SDS011;76184;42.004;21.420;2024-03-23T11:02:21;14.60;;;7.57;;
85742;SDS011;76184;42.004;21.420;2024-03-23T11:04:47;15.55;;;7.53;;
85742;SDS011;76184;42.004;21.420;2024-03-23T11:07:29;12.27;;;6.57;;
85742;SDS011;76184;42.004;21.420;2024-03-23T11:09:56;12.82;;;6.78;;
85742;SDS011;76184;42.004;21.420;2024-03-23T11:15:05;10.43;;;6.85;;
85742;SDS011;76184;42.004;21.420;2024-03-23T11:17:31;11.68;;;6.90;;
85742;SDS011;76184;42.004;21.420;2024-03-23T11:20:01;13.13;;;7.80;;
85742;SDS011;76184;42.004;21.420;2024-03-23T11:22:46;10.88;;;6.43;;
85742;SDS011;76184;42.004;21.420;2024-03-23T11:25:14;10.15;;;5.90;;
85742;SDS011;76184;42.004;21.420;2024-03-23T11:27:41;9.52;;;6.18;;
85742;SDS011;76184;42.004;21.420;2024-03-23T11:30:20;12.48;;;6.88;;
85742;SDS011;76184;42.004;21.420;2024-03-23T11:32:50;13.68;;;6.82;;
85742;SDS011;76184;42.004;21.420;2024-03-23T11:35:37;11.50;;;6.43;;
85742;SDS011;76184;42.004;21.420;2024-03-23T11:38:07;12.10;;;7.07;;
85742;SDS011;76184;42.004;21.420;2024-03-23T11:40:35;11.18;;;6.45;;
85742;SDS011;76184;42.004;21.420;2024-03-23T11:43:02;19.02;;;7.40;;
85742;SDS011;76184;42.004;21.420;2024-03-23T11:45:31;10.15;;;5.82;;
85742;SDS011;76184;42.004;21.420;2024-03-23T11:48:07;10.88;;;6.00;;
85742;SDS011;76184;42.004;21.420;2024-03-23T11:50:35;9.63;;;4.93;;
85742;SDS011;76184;42.004;21.420;2024-03-23T11:55:45;9.32;;;5.47;;
85742;SDS011;76184;42.004;21.420;2024-03-23T11:58:12;8.55;;;5.13;;
85742;SDS011;76184;42.004;21.420;2024-03-23T12:00:38;8.48;;;5.45;;
85742;SDS011;76184;42.004;21.420;2024-03-23T12:03:05;11.23;;;5.15;;
85742;SDS011;76184;42.004;21.420;2024-03-23T12:05:32;10.40;;;5.60;;
85742;SDS011;76184;42.004;21.420;2024-03-23T12:10:50;8.10;;;4.82;;
85742;SDS011;76184;42.004;21.420;2024-03-23T12:13:17;8.77;;;5.25;;
85742;SDS011;76184;42.004;21.420;2024-03-23T12:15:44;9.38;;;5.53;;
85742;SDS011;76184;42.004;21.420;2024-03-23T12:18:10;10.60;;;4.93;;
85742;SDS011;76184;42.004;21.420;2024-03-23T12:20:37;10.93;;;4.93;;
85742;SDS011;76184;42.004;21.420;2024-03-23T12:23:07;9.02;;;4.47;;
85742;SDS011;76184;42.004;21.420;2024-03-23T12:25:34;12.63;;;5.25;;
85742;SDS011;76184;42.004;21.420;2024-03-23T12:28:00;8.05;;;4.20;;
85742;SDS011;76184;42.004;21.420;2024-03-23T12:30:26;8.57;;;4.32;;
85742;SDS011;76184;42.004;21.420;2024-03-23T12:32:52;6.50;;;3.92;;
85742;SDS011;76184;42.004;21.420;2024-03-23T12:35:19;7.22;;;3.38;;
85742;SDS011;76184;42.004;21.420;2024-03-23T12:37:45;6.57;;;3.33;;
85742;SDS011;76184;42.004;21.420;2024-03-23T12:40:11;7.55;;;4.13;;
85742;SDS011;76184;42.004;21.420;2024-03-23T12:42:37;7.40;;;4.00;;
85742;SDS011;76184;42.004;21.420;2024-03-23T12:45:04;9.40;;;4.10;;
85742;SDS011;76184;42.004;21.420;2024-03-23T12:47:30;8.63;;;3.97;;
85742;SDS011;76184;42.004;21.420;2024-03-23T12:49:57;7.63;;;4.00;;
85742;SDS011;76184;42.004;21.420;2024-03-23T12:52:24;7.72;;;3.83;;
85742;SDS011;76184;42.004;21.420;2024-03-23T12:54:54;10.07;;;3.78;;
85742;SDS011;76184;42.004;21.420;2024-03-23T12:57:21;11.32;;;4.07;;
85742;SDS011;76184;42.004;21.420;2024-03-23T12:59:48;9.27;;;4.50;;
85742;SDS011;76184;42.004;21.420;2024-03-23T13:02:16;11.48;;;3.97;;
85742;SDS011;76184;42.004;21.420;2024-03-23T13:04:42;6.50;;;4.10;;
85742;SDS011;76184;42.004;21.420;2024-03-23T13:07:08;8.45;;;4.00;;
85742;SDS011;76184;42.004;21.420;2024-03-23T13:09:35;8.60;;;4.35;;
85742;SDS011;76184;42.004;21.420;2024-03-23T13:12:01;10.00;;;4.75;;
85742;SDS011;76184;42.004;21.420;2024-03-23T13:14:27;8.07;;;4.43;;
85742;SDS011;76184;42.004;21.420;2024-03-23T13:16:53;9.52;;;4.00;;
85742;SDS011;76184;42.004;21.420;2024-03-23T13:19:19;10.98;;;4.70;;
85742;SDS011;76184;42.004;21.420;2024-03-23T13:21:48;12.75;;;4.80;;
85742;SDS011;76184;42.004;21.420;2024-03-23T13:24:14;9.43;;;4.75;;
85742;SDS011;76184;42.004;21.420;2024-03-23T13:26:40;8.52;;;4.35;;
85742;SDS011;76184;42.004;21.420;2024-03-23T13:29:06;7.50;;;3.88;;
85742;SDS011;76184;42.004;21.420;2024-03-23T13:31:34;9.68;;;4.68;;
85742;SDS011;76184;42.004;21.420;2024-03-23T13:34:00;8.93;;;4.32;;
85742;SDS011;76184;42.004;21.420;2024-03-23T13:36:27;8.38;;;4.60;;
85742;SDS011;76184;42.004;21.420;2024-03-23T13:38:53;9.32;;;4.68;;
85742;SDS011;76184;42.004;21.420;2024-03-23T13:41:19;9.35;;;4.25;;
85742;SDS011;76184;42.004;21.420;2024-03-23T13:43:45;7.20;;;4.07;;
85742;SDS011;76184;42.004;21.420;2024-03-23T13:46:11;6.55;;;3.83;;
85742;SDS011;76184;42.004;21.420;2024-03-23T13:48:37;10.25;;;4.30;;
85742;SDS011;76184;42.004;21.420;2024-03-23T13:51:04;6.68;;;4.05;;
85742;SDS011;76184;42.004;21.420;2024-03-23T13:53:30;9.07;;;4.53;;
85742;SDS011;76184;42.004;21.420;2024-03-23T13:56:00;8.75;;;4.53;;
85742;SDS011;76184;42.004;21.420;2024-03-23T13:58:26;7.57;;;4.10;;
85742;SDS011;76184;42.004;21.420;2024-03-23T14:00:52;7.50;;;4.28;;
85742;SDS011;76184;42.004;21.420;2024-03-23T14:03:19;8.68;;;4.35;;
85742;SDS011;76184;42.004;21.420;2024-03-23T14:05:45;9.07;;;4.55;;
85742;SDS011;76184;42.004;21.420;2024-03-23T14:08:12;6.25;;;3.95;;
85742;SDS011;76184;42.004;21.420;2024-03-23T14:10:41;8.48;;;4.55;;
85742;SDS011;76184;42.004;21.420;2024-03-23T14:13:08;8.40;;;4.38;;
85742;SDS011;76184;42.004;21.420;2024-03-23T14:15:35;8.52;;;4.85;;
85742;SDS011;76184;42.004;21.420;2024-03-23T14:18:02;7.88;;;4.63;;
85742;SDS011;76184;42.004;21.420;2024-03-23T14:20:28;8.02;;;4.85;;
85742;SDS011;76184;42.004;21.420;2024-03-23T14:22:54;6.85;;;4.30;;
85742;SDS011;76184;42.004;21.420;2024-03-23T14:25:21;9.82;;;4.90;;
85742;SDS011;76184;42.004;21.420;2024-03-23T14:27:52;10.35;;;5.05;;
85742;SDS011;76184;42.004;21.420;2024-03-23T14:30:18;9.77;;;4.45;;
85742;SDS011;76184;42.004;21.420;2024-03-23T14:32:44;10.32;;;4.13;;
85742;SDS011;76184;42.004;21.420;2024-03-23T14:35:10;7.30;;;4.07;;
85742;SDS011;76184;42.004;21.420;2024-03-23T14:37:37;7.30;;;3.92;;
85742;SDS011;76184;42.004;21.420;2024-03-23T14:40:03;8.10;;;4.13;;
85742;SDS011;76184;42.004;21.420;2024-03-23T14:42:29;8.68;;;4.43;;
85742;SDS011;76184;42.004;21.420;2024-03-23T14:44:59;7.68;;;4.05;;
85742;SDS011;76184;42.004;21.420;2024-03-23T14:47:25;7.43;;;3.90;;
85742;SDS011;76184;42.004;21.420;2024-03-23T14:49:51;6.80;;;4.22;;
85742;SDS011;76184;42.004;21.420;2024-03-23T14:52:17;6.57;;;4.05;;
85742;SDS011;76184;42.004;21.420;2024-03-23T14:54:43;8.70;;;4.47;;
85742;SDS011;76184;42.004;21.420;2024-03-23T14:57:10;7.30;;;3.75;;
85742;SDS011;76184;42.004;21.420;2024-03-23T14:59:36;7.20;;;4.40;;
85742;SDS011;76184;42.004;21.420;2024-03-23T15:02:08;8.23;;;4.38;;
85742;SDS011;76184;42.004;21.420;2024-03-23T15:04:35;9.45;;;5.03;;
85742;SDS011;76184;42.004;21.420;2024-03-23T15:07:01;10.63;;;4.65;;
85742;SDS011;76184;42.004;21.420;2024-03-23T15:09:28;10.18;;;5.13;;
85742;SDS011;76184;42.004;21.420;2024-03-23T15:11:54;8.27;;;5.57;;
85742;SDS011;76184;42.004;21.420;2024-03-23T15:14:20;10.70;;;5.57;;
85742;SDS011;76184;42.004;21.420;2024-03-23T15:16:47;11.13;;;5.82;;
85742;SDS011;76184;42.004;21.420;2024-03-23T15:19:14;12.40;;;6.90;;
85742;SDS011;76184;42.004;21.420;2024-03-23T15:21:42;9.63;;;6.25;;
85742;SDS011;76184;42.004;21.420;2024-03-23T15:24:08;6.75;;;3.80;;